Time;durP1;ratioP1;P1;durP2;ratioP2;P2;SDS_P1;SDS_P2;PMS_P1;PMS_P2;Temp;Humidity;BMP_temperature;BMP_pressure;BME280_temperature;BME280_humidity;BME280_pressure;Samples;Min_cycle;Max_cycle;Signal;HPM_P1;HPM_P2
2022/11/06 00:02:24;;;;;;;22.80;10.68;;;;;;;;;;5038982;28;20055;-64
2022/11/06 00:04:50;;;;;;;21.35;10.43;;;;;;;;;;5031947;28;20048;-64
2022/11/06 00:07:16;;;;;;;19.33;10.32;;;;;;;;;;5037296;28;20164;-64
2022/11/06 00:09:42;;;;;;;19.05;10.00;;;;;;;;;;5037623;28;20075;-64
2022/11/06 00:12:08;;;;;;;21.17;10.40;;;;;;;;;;5067653;28;20496;-64
2022/11/06 00:14:34;;;;;;;25.38;12.85;;;;;;;;;;5034588;28;20038;-64
2022/11/06 00:17:01;;;;;;;26.15;11.20;;;;;;;;;;5036442;28;20049;-64
2022/11/06 00:19:27;;;;;;;22.25;12.07;;;;;;;;;;5038028;28;20045;-64
2022/11/06 00:21:53;;;;;;;21.40;12.73;;;;;;;;;;5041248;28;21884;-64
2022/11/06 00:24:19;;;;;;;21.08;12.02;;;;;;;;;;5036855;28;20056;-64
2022/11/06 00:26:45;;;;;;;21.77;11.85;;;;;;;;;;5037350;28;20068;-64
2022/11/06 00:29:13;;;;;;;22.55;11.65;;;;;;;;;;5036752;28;20039;-64
2022/11/06 00:31:39;;;;;;;23.65;11.73;;;;;;;;;;5036908;28;20048;-64
2022/11/06 00:34:06;;;;;;;21.13;10.98;;;;;;;;;;5036384;28;20039;-65
2022/11/06 00:36:32;;;;;;;20.98;11.40;;;;;;;;;;5063582;28;21182;-64
2022/11/06 00:38:59;;;;;;;19.63;10.93;;;;;;;;;;5036323;28;20037;-64
2022/11/06 00:41:26;;;;;;;23.67;11.55;;;;;;;;;;5040027;28;20393;-64
2022/11/06 00:43:53;;;;;;;19.25;10.60;;;;;;;;;;5038027;28;20045;-64
2022/11/06 00:46:19;;;;;;;21.35;10.80;;;;;;;;;;5038539;28;20072;-64
2022/11/06 00:48:46;;;;;;;20.55;10.90;;;;;;;;;;5033404;28;20094;-64
2022/11/06 00:51:19;;;;;;;22.83;10.13;;;;;;;;;;5036886;28;20037;-64
2022/11/06 00:53:45;;;;;;;16.38;10.15;;;;;;;;;;5034644;28;20049;-64
2022/11/06 00:56:13;;;;;;;24.80;10.38;;;;;;;;;;5035096;28;20049;-64
2022/11/06 00:58:40;;;;;;;20.80;10.63;;;;;;;;;;5037590;28;20146;-64
2022/11/06 01:01:14;;;;;;;22.92;10.05;;;;;;;;;;5036407;28;20488;-64
2022/11/06 01:03:41;;;;;;;16.50;10.52;;;;;;;;;;5035506;28;20049;-64
2022/11/06 01:06:09;;;;;;;20.15;9.60;;;;;;;;;;5035172;28;20267;-64
2022/11/06 01:08:35;;;;;;;16.80;10.25;;;;;;;;;;5031983;28;20045;-64
2022/11/06 01:11:05;;;;;;;23.48;10.35;;;;;;;;;;5032008;28;20052;-64
2022/11/06 01:13:32;;;;;;;20.67;9.80;;;;;;;;;;5040153;28;20037;-64
2022/11/06 01:15:58;;;;;;;21.50;9.80;;;;;;;;;;5068863;28;20048;-64
2022/11/06 01:18:24;;;;;;;23.38;9.88;;;;;;;;;;5042027;28;20037;-64
2022/11/06 01:20:50;;;;;;;16.95;9.50;;;;;;;;;;5040304;28;20401;-64
2022/11/06 01:23:16;;;;;;;20.55;9.75;;;;;;;;;;5036434;28;20042;-64
2022/11/06 01:25:42;;;;;;;17.73;9.60;;;;;;;;;;5037203;28;20090;-64
2022/11/06 01:28:09;;;;;;;18.13;9.70;;;;;;;;;;5035968;28;20057;-64
2022/11/06 01:30:36;;;;;;;27.25;10.40;;;;;;;;;;5036858;28;20264;-64
2022/11/06 01:33:03;;;;;;;17.73;10.30;;;;;;;;;;5034212;28;20075;-64
2022/11/06 01:35:29;;;;;;;18.77;10.43;;;;;;;;;;5037810;28;20096;-64
2022/11/06 01:37:55;;;;;;;18.90;9.60;;;;;;;;;;5037439;28;20059;-64
2022/11/06 01:40:21;;;;;;;21.27;9.88;;;;;;;;;;5051799;28;20128;-64
2022/11/06 01:42:47;;;;;;;24.77;11.10;;;;;;;;;;5037633;28;20079;-64
2022/11/06 01:45:20;;;;;;;16.85;9.90;;;;;;;;;;5038415;28;20037;-63
2022/11/06 01:47:46;;;;;;;22.08;10.73;;;;;;;;;;5034196;28;20045;-64
2022/11/06 01:50:14;;;;;;;19.23;9.75;;;;;;;;;;5069022;28;20045;-64
2022/11/06 01:52:40;;;;;;;18.77;10.88;;;;;;;;;;5035418;28;20082;-64
2022/11/06 01:55:09;;;;;;;19.35;10.55;;;;;;;;;;5036118;28;20049;-64
2022/11/06 01:57:36;;;;;;;19.63;11.35;;;;;;;;;;5037310;28;20511;-64
2022/11/06 02:00:04;;;;;;;25.80;11.85;;;;;;;;;;5038526;28;20559;-64
2022/11/06 02:02:30;;;;;;;24.10;12.23;;;;;;;;;;5032510;28;20046;-64
2022/11/06 02:04:56;;;;;;;19.15;12.00;;;;;;;;;;5035466;28;20419;-64
2022/11/06 02:07:22;;;;;;;18.98;12.05;;;;;;;;;;5040823;28;20520;-64
2022/11/06 02:09:48;;;;;;;18.30;11.68;;;;;;;;;;5034104;28;20093;-64
2022/11/06 02:12:27;;;;;;;19.10;12.40;;;;;;;;;;5033765;28;20048;-64
2022/11/06 02:15:00;;;;;;;19.88;12.93;;;;;;;;;;5039050;28;20205;-63
2022/11/06 02:17:27;;;;;;;20.25;12.63;;;;;;;;;;5037301;28;20053;-64
2022/11/06 02:20:01;;;;;;;18.77;12.95;;;;;;;;;;5037188;28;20084;-64
2022/11/06 02:22:27;;;;;;;21.27;12.80;;;;;;;;;;5069116;28;20053;-64
2022/11/06 02:25:00;;;;;;;23.95;14.05;;;;;;;;;;5040143;28;20055;-64
2022/11/06 02:27:28;;;;;;;19.70;12.02;;;;;;;;;;5043326;28;20054;-64
2022/11/06 02:29:59;;;;;;;20.20;12.85;;;;;;;;;;5043143;28;20165;-64
2022/11/06 02:32:30;;;;;;;20.27;12.82;;;;;;;;;;5039031;28;20034;-64
2022/11/06 02:34:59;;;;;;;27.13;14.40;;;;;;;;;;5071307;28;20098;-64
2022/11/06 02:37:27;;;;;;;24.77;14.38;;;;;;;;;;5042034;28;20090;-64
2022/11/06 02:39:55;;;;;;;24.95;14.40;;;;;;;;;;5042718;28;20052;-64
2022/11/06 02:42:21;;;;;;;21.45;12.98;;;;;;;;;;5043798;28;20085;-63
2022/11/06 02:44:49;;;;;;;21.95;14.02;;;;;;;;;;5039852;28;20076;-63
2022/11/06 02:47:16;;;;;;;21.50;13.77;;;;;;;;;;5039628;28;20052;-63
2022/11/06 02:49:45;;;;;;;26.83;14.95;;;;;;;;;;5041237;28;20051;-64
2022/11/06 02:52:13;;;;;;;22.65;14.52;;;;;;;;;;5036878;28;20124;-63
2022/11/06 02:54:42;;;;;;;20.48;13.50;;;;;;;;;;5041371;28;20060;-63
2022/11/06 02:57:10;;;;;;;26.00;14.43;;;;;;;;;;5043334;28;20041;-63
2022/11/06 02:59:44;;;;;;;21.60;14.40;;;;;;;;;;5071022;28;20049;-63
2022/11/06 03:02:15;;;;;;;24.25;14.50;;;;;;;;;;5035865;28;20060;-63
2022/11/06 03:04:45;;;;;;;22.80;14.68;;;;;;;;;;5039514;28;20048;-64
2022/11/06 03:07:16;;;;;;;25.30;13.50;;;;;;;;;;5037761;28;20488;-64
2022/11/06 03:09:42;;;;;;;22.17;13.93;;;;;;;;;;5042897;28;20093;-64
2022/11/06 03:12:09;;;;;;;24.27;14.02;;;;;;;;;;5040143;28;20300;-63
2022/11/06 03:14:40;;;;;;;23.70;14.95;;;;;;;;;;5040361;28;20049;-64
2022/11/06 03:17:14;;;;;;;24.80;15.15;;;;;;;;;;5037446;28;20826;-64
2022/11/06 03:19:45;;;;;;;24.88;15.85;;;;;;;;;;5041339;28;20064;-63
2022/11/06 03:22:28;;;;;;;22.67;14.88;;;;;;;;;;5039099;28;20551;-64
2022/11/06 03:25:02;;;;;;;20.65;15.10;;;;;;;;;;5039372;28;20052;-63
2022/11/06 03:27:34;;;;;;;25.65;16.55;;;;;;;;;;5040794;28;20059;-64
2022/11/06 03:30:04;;;;;;;26.45;14.45;;;;;;;;;;5040861;28;20045;-63
2022/11/06 03:32:33;;;;;;;22.95;14.85;;;;;;;;;;5041188;28;20551;-63
2022/11/06 03:35:04;;;;;;;23.00;14.85;;;;;;;;;;5040254;28;20806;-63
2022/11/06 03:37:33;;;;;;;24.63;15.23;;;;;;;;;;5040026;28;20080;-63
2022/11/06 03:40:02;;;;;;;26.38;14.43;;;;;;;;;;5039023;28;20080;-63
2022/11/06 03:42:29;;;;;;;19.45;13.43;;;;;;;;;;5038830;28;20934;-63
2022/11/06 03:44:56;;;;;;;19.48;13.93;;;;;;;;;;5042809;28;20053;-64
2022/11/06 03:47:22;;;;;;;22.65;15.13;;;;;;;;;;5055305;28;20049;-64
2022/11/06 03:49:53;;;;;;;27.17;15.52;;;;;;;;;;5040024;28;20397;-64
2022/11/06 03:52:24;;;;;;;23.60;14.27;;;;;;;;;;5038366;28;20198;-64
2022/11/06 03:54:59;;;;;;;26.13;14.85;;;;;;;;;;5036689;28;20560;-64
2022/11/06 03:57:35;;;;;;;24.88;15.07;;;;;;;;;;5037356;28;20124;-64
2022/11/06 04:00:03;;;;;;;19.80;14.35;;;;;;;;;;5034874;28;20114;-64
2022/11/06 04:02:31;;;;;;;28.25;14.75;;;;;;;;;;5035414;28;20053;-64
2022/11/06 04:05:02;;;;;;;22.38;14.90;;;;;;;;;;5055794;28;20049;-64
2022/11/06 04:07:33;;;;;;;19.73;13.95;;;;;;;;;;5038000;28;20085;-64
2022/11/06 04:15:34;;;;;;;19.23;13.10;;;;;;;;;;5041291;28;20084;-64
2022/11/06 04:18:01;;;;;;;22.38;13.35;;;;;;;;;;5035847;28;20056;-64
2022/11/06 04:23:24;;;;;;;26.10;14.18;;;;;;;;;;5042467;28;20045;-64
2022/11/06 04:28:50;;;;;;;22.17;13.77;;;;;;;;;;5036808;28;20076;-64
2022/11/06 04:31:17;;;;;;;21.23;14.15;;;;;;;;;;5034591;28;20037;-64
2022/11/06 04:33:52;;;;;;;21.33;13.88;;;;;;;;;;5037594;28;20117;-64
2022/11/06 04:36:24;;;;;;;22.63;13.75;;;;;;;;;;5037583;28;20080;-64
2022/11/06 04:38:50;;;;;;;21.33;12.60;;;;;;;;;;5037804;28;20053;-64
2022/11/06 04:41:23;;;;;;;27.42;13.25;;;;;;;;;;5070691;28;20041;-64
2022/11/06 04:43:58;;;;;;;26.50;13.15;;;;;;;;;;5037639;28;20063;-64
2022/11/06 04:46:28;;;;;;;22.08;12.40;;;;;;;;;;5072326;28;20811;-64
2022/11/06 04:48:54;;;;;;;23.55;12.38;;;;;;;;;;5038073;28;20032;-64
2022/11/06 04:51:23;;;;;;;18.17;13.27;;;;;;;;;;5040983;28;20079;-64
2022/11/06 04:53:50;;;;;;;24.40;13.63;;;;;;;;;;5040401;28;20520;-65
2022/11/06 04:56:22;;;;;;;18.20;12.50;;;;;;;;;;5039043;28;20076;-64
2022/11/06 04:58:48;;;;;;;18.48;12.45;;;;;;;;;;5040316;28;20126;-65
2022/11/06 05:01:14;;;;;;;21.05;12.07;;;;;;;;;;5041018;28;20041;-64
2022/11/06 05:03:40;;;;;;;21.25;12.25;;;;;;;;;;5038789;28;20040;-65
2022/11/06 05:06:06;;;;;;;25.23;13.23;;;;;;;;;;5035370;28;20120;-64
2022/11/06 05:08:32;;;;;;;21.73;12.32;;;;;;;;;;5036503;28;20052;-64
2022/11/06 05:10:59;;;;;;;23.00;11.55;;;;;;;;;;5041756;28;20100;-64
2022/11/06 05:13:25;;;;;;;15.40;11.35;;;;;;;;;;5037492;28;20149;-64
2022/11/06 05:15:56;;;;;;;20.08;12.60;;;;;;;;;;5036369;28;20047;-64
2022/11/06 05:18:22;;;;;;;17.77;12.60;;;;;;;;;;5037868;28;20061;-65
2022/11/06 05:20:48;;;;;;;27.15;12.98;;;;;;;;;;5039030;28;20506;-65
2022/11/06 05:23:14;;;;;;;23.08;12.57;;;;;;;;;;5037433;28;20048;-64
2022/11/06 05:25:41;;;;;;;22.23;11.68;;;;;;;;;;5037817;28;20123;-64
2022/11/06 05:28:08;;;;;;;18.85;12.45;;;;;;;;;;5038243;28;20036;-64
2022/11/06 05:30:35;;;;;;;23.77;13.02;;;;;;;;;;5037221;28;20047;-65
2022/11/06 05:33:02;;;;;;;19.48;13.05;;;;;;;;;;5038119;28;20052;-64
2022/11/06 05:35:28;;;;;;;19.02;12.70;;;;;;;;;;5057792;28;20142;-64
2022/11/06 05:38:01;;;;;;;23.05;12.27;;;;;;;;;;5042404;28;20087;-64
2022/11/06 05:40:27;;;;;;;24.83;12.82;;;;;;;;;;5037502;28;20060;-64
2022/11/06 05:42:53;;;;;;;20.15;13.48;;;;;;;;;;5038516;28;20053;-64
2022/11/06 05:45:19;;;;;;;19.48;12.50;;;;;;;;;;5038747;28;20099;-64
2022/11/06 05:47:45;;;;;;;22.92;12.05;;;;;;;;;;5036959;28;20121;-64
2022/11/06 05:50:12;;;;;;;20.35;12.73;;;;;;;;;;5043383;28;20361;-64
2022/11/06 05:52:38;;;;;;;17.90;11.85;;;;;;;;;;5046281;28;20397;-64
2022/11/06 05:55:05;;;;;;;22.23;13.65;;;;;;;;;;5045029;28;20037;-64
2022/11/06 05:57:31;;;;;;;22.63;12.43;;;;;;;;;;5041434;28;20045;-64
2022/11/06 05:59:57;;;;;;;20.20;13.15;;;;;;;;;;5046038;28;20061;-64
2022/11/06 06:02:23;;;;;;;18.88;12.68;;;;;;;;;;5041981;28;20033;-63
2022/11/06 06:04:50;;;;;;;19.75;13.10;;;;;;;;;;5044248;28;20048;-64
2022/11/06 06:07:16;;;;;;;18.95;12.63;;;;;;;;;;5041109;28;20063;-64
2022/11/06 06:09:42;;;;;;;18.45;13.00;;;;;;;;;;5045640;28;20037;-64
2022/11/06 06:12:10;;;;;;;21.08;13.60;;;;;;;;;;5043956;28;20044;-65
2022/11/06 06:14:36;;;;;;;26.27;13.50;;;;;;;;;;5040892;28;20517;-64
2022/11/06 06:17:02;;;;;;;25.70;13.80;;;;;;;;;;5042876;28;20143;-64
2022/11/06 06:19:28;;;;;;;21.63;13.70;;;;;;;;;;5039899;28;20056;-64
2022/11/06 06:21:55;;;;;;;24.67;13.63;;;;;;;;;;5045327;28;20060;-64
2022/11/06 06:24:21;;;;;;;21.15;14.50;;;;;;;;;;5042787;28;20040;-64
2022/11/06 06:26:47;;;;;;;21.73;14.00;;;;;;;;;;5048399;28;20076;-64
2022/11/06 06:29:13;;;;;;;19.98;13.60;;;;;;;;;;5044778;28;20049;-64
2022/11/06 06:31:39;;;;;;;20.98;14.07;;;;;;;;;;5044634;28;20041;-64
2022/11/06 06:34:06;;;;;;;21.85;13.75;;;;;;;;;;5045884;28;20052;-64
2022/11/06 06:36:32;;;;;;;24.35;15.18;;;;;;;;;;5045308;28;20668;-64
2022/11/06 06:38:59;;;;;;;22.13;15.48;;;;;;;;;;5045783;28;20476;-64
2022/11/06 06:41:25;;;;;;;26.08;15.60;;;;;;;;;;5045532;28;20059;-64
2022/11/06 06:43:51;;;;;;;24.90;15.63;;;;;;;;;;5045961;28;20049;-63
2022/11/06 06:46:17;;;;;;;25.30;15.98;;;;;;;;;;5047501;28;20033;-65
2022/11/06 06:48:43;;;;;;;24.33;15.93;;;;;;;;;;5047602;28;20045;-64
2022/11/06 06:51:09;;;;;;;29.02;16.05;;;;;;;;;;5049950;28;20041;-64
2022/11/06 06:53:36;;;;;;;35.42;18.85;;;;;;;;;;5045875;28;20178;-64
2022/11/06 06:56:03;;;;;;;29.50;16.73;;;;;;;;;;5049558;28;20048;-64
2022/11/06 06:58:29;;;;;;;30.70;16.83;;;;;;;;;;5049001;28;20040;-64
2022/11/06 07:00:58;;;;;;;32.97;16.70;;;;;;;;;;5047810;28;20122;-64
2022/11/06 07:03:24;;;;;;;31.23;15.77;;;;;;;;;;5081466;28;20540;-64
2022/11/06 07:05:50;;;;;;;29.10;15.82;;;;;;;;;;5046384;28;20472;-63
2022/11/06 07:08:16;;;;;;;31.10;15.82;;;;;;;;;;5065196;28;20441;-63
2022/11/06 07:10:42;;;;;;;27.40;15.73;;;;;;;;;;5048811;28;20418;-64
2022/11/06 07:13:09;;;;;;;34.70;16.02;;;;;;;;;;5050161;28;20494;-64
2022/11/06 07:15:35;;;;;;;28.10;15.85;;;;;;;;;;5045981;28;20934;-63
2022/11/06 07:18:02;;;;;;;32.65;14.75;;;;;;;;;;5047740;28;20044;-63
2022/11/06 07:20:28;;;;;;;33.53;14.98;;;;;;;;;;5040777;28;20053;-64
2022/11/06 07:22:54;;;;;;;21.83;14.20;;;;;;;;;;5046048;28;20049;-64
2022/11/06 07:25:20;;;;;;;27.92;14.63;;;;;;;;;;5048487;28;20059;-64
2022/11/06 07:27:46;;;;;;;24.27;14.13;;;;;;;;;;5046551;28;20052;-64
2022/11/06 07:30:13;;;;;;;26.92;14.43;;;;;;;;;;5043085;28;20132;-64
2022/11/06 07:32:39;;;;;;;26.23;14.07;;;;;;;;;;5047342;28;20036;-64
2022/11/06 07:35:05;;;;;;;24.23;13.02;;;;;;;;;;5042978;28;20052;-64
2022/11/06 07:37:32;;;;;;;22.48;12.30;;;;;;;;;;5042740;28;20040;-64
2022/11/06 07:39:58;;;;;;;21.40;13.05;;;;;;;;;;5045215;28;20037;-64
2022/11/06 07:42:24;;;;;;;25.60;12.55;;;;;;;;;;5037579;28;20124;-63
2022/11/06 07:44:53;;;;;;;26.05;13.32;;;;;;;;;;5041447;28;20052;-63
2022/11/06 07:47:19;;;;;;;27.75;12.70;;;;;;;;;;5043839;28;20053;-63
2022/11/06 07:49:45;;;;;;;22.88;11.98;;;;;;;;;;5046241;28;20358;-63
2022/11/06 07:52:11;;;;;;;22.80;11.80;;;;;;;;;;5043583;28;20496;-63
2022/11/06 07:54:37;;;;;;;28.65;12.30;;;;;;;;;;5076903;28;20033;-63
2022/11/06 07:57:03;;;;;;;29.50;12.52;;;;;;;;;;5043227;28;20127;-63
2022/11/06 07:59:30;;;;;;;33.08;12.68;;;;;;;;;;5043446;28;20045;-63
2022/11/06 08:01:56;;;;;;;31.05;12.98;;;;;;;;;;5038647;28;20134;-64
2022/11/06 08:04:22;;;;;;;36.33;13.13;;;;;;;;;;5035089;28;20048;-63
2022/11/06 08:06:48;;;;;;;25.35;12.82;;;;;;;;;;5042443;28;20056;-63
2022/11/06 08:09:15;;;;;;;25.35;12.40;;;;;;;;;;5042677;28;20053;-71
2022/11/06 08:11:41;;;;;;;22.05;11.50;;;;;;;;;;5035617;28;20492;-63
2022/11/06 08:14:09;;;;;;;23.98;11.00;;;;;;;;;;5043331;28;20041;-64
2022/11/06 08:16:35;;;;;;;29.33;10.82;;;;;;;;;;5039833;28;20282;-63
2022/11/06 08:19:02;;;;;;;23.48;9.98;;;;;;;;;;5057378;28;20045;-63
2022/11/06 08:21:28;;;;;;;26.45;10.82;;;;;;;;;;5045905;28;20057;-63
2022/11/06 08:23:54;;;;;;;26.90;10.38;;;;;;;;;;5042935;28;20045;-63
2022/11/06 08:26:20;;;;;;;19.83;9.60;;;;;;;;;;5043777;28;20556;-63
2022/11/06 08:28:46;;;;;;;21.42;9.40;;;;;;;;;;5047532;28;20048;-63
2022/11/06 08:31:13;;;;;;;24.33;9.95;;;;;;;;;;5042564;28;20125;-64
2022/11/06 08:33:39;;;;;;;24.25;9.52;;;;;;;;;;5037765;28;20052;-62
2022/11/06 08:36:07;;;;;;;25.42;9.50;;;;;;;;;;5041781;28;20068;-63
2022/11/06 08:38:33;;;;;;;14.05;8.88;;;;;;;;;;5041583;28;20049;-63
2022/11/06 08:41:03;;;;;;;19.05;7.38;;;;;;;;;;5077601;28;20048;-63
2022/11/06 08:43:29;;;;;;;16.55;7.18;;;;;;;;;;5036189;28;20053;-63
2022/11/06 08:45:55;;;;;;;19.50;7.80;;;;;;;;;;5038527;28;20072;-63
2022/11/06 08:48:22;;;;;;;17.80;7.55;;;;;;;;;;5042908;28;20104;-64
2022/11/06 08:50:48;;;;;;;16.13;7.22;;;;;;;;;;5079255;28;20051;-64
2022/11/06 08:53:14;;;;;;;16.95;7.28;;;;;;;;;;5044596;28;20505;-64
2022/11/06 08:55:40;;;;;;;22.25;8.13;;;;;;;;;;5045160;28;20045;-64
2022/11/06 08:58:07;;;;;;;22.75;7.20;;;;;;;;;;5040351;28;20049;-64
2022/11/06 09:00:33;;;;;;;15.52;6.95;;;;;;;;;;5039583;28;20421;-64
2022/11/06 09:03:00;;;;;;;19.85;8.40;;;;;;;;;;5041846;28;20064;-63
2022/11/06 09:05:28;;;;;;;19.90;7.53;;;;;;;;;;5046027;28;20133;-63
2022/11/06 09:07:55;;;;;;;18.80;7.70;;;;;;;;;;5043605;28;20095;-63
2022/11/06 09:10:21;;;;;;;19.80;7.95;;;;;;;;;;5044517;28;20485;-63
2022/11/06 09:12:47;;;;;;;23.92;8.23;;;;;;;;;;5043481;28;20049;-64
2022/11/06 09:15:13;;;;;;;26.05;8.63;;;;;;;;;;5044075;28;20041;-64
2022/11/06 09:17:43;;;;;;;22.35;8.27;;;;;;;;;;5042074;28;20049;-63
2022/11/06 09:20:10;;;;;;;19.55;8.85;;;;;;;;;;5043477;28;20114;-63
2022/11/06 09:22:36;;;;;;;14.68;7.63;;;;;;;;;;5075662;28;20536;-64
2022/11/06 09:25:02;;;;;;;15.90;7.20;;;;;;;;;;5045089;28;20076;-63
2022/11/06 09:27:28;;;;;;;19.23;7.35;;;;;;;;;;5044596;28;20099;-63
2022/11/06 09:29:55;;;;;;;18.55;7.68;;;;;;;;;;5046101;28;20140;-63
2022/11/06 09:32:21;;;;;;;18.55;8.02;;;;;;;;;;5045013;28;20045;-63
2022/11/06 09:34:47;;;;;;;19.88;8.00;;;;;;;;;;5044532;28;20049;-63
2022/11/06 09:37:13;;;;;;;18.90;8.52;;;;;;;;;;5046096;28;20048;-63
2022/11/06 09:39:39;;;;;;;17.30;7.97;;;;;;;;;;5041882;28;20037;-63
2022/11/06 09:42:05;;;;;;;20.40;8.85;;;;;;;;;;5034730;28;20041;-64
2022/11/06 09:44:58;;;;;;;25.75;8.98;;;;;;;;;;5044321;28;20098;-63
2022/11/06 09:47:28;;;;;;;24.52;8.63;;;;;;;;;;5040063;28;20075;-64
2022/11/06 09:49:55;;;;;;;15.07;8.35;;;;;;;;;;5043628;28;20126;-64
2022/11/06 09:52:34;;;;;;;18.02;8.30;;;;;;;;;;5045699;28;20040;-63
2022/11/06 09:55:03;;;;;;;19.90;8.10;;;;;;;;;;5044917;28;20051;-64
2022/11/06 09:57:35;;;;;;;24.27;8.82;;;;;;;;;;5045618;28;20052;-63
2022/11/06 10:00:04;;;;;;;18.98;7.57;;;;;;;;;;5044985;28;20040;-64
2022/11/06 10:02:41;;;;;;;16.67;8.25;;;;;;;;;;5045287;28;20053;-63
2022/11/06 10:05:10;;;;;;;21.25;7.53;;;;;;;;;;5045330;28;20099;-63
2022/11/06 10:07:39;;;;;;;20.50;7.20;;;;;;;;;;5043710;28;20052;-64
2022/11/06 10:10:07;;;;;;;22.30;7.68;;;;;;;;;;5045177;28;20400;-64
2022/11/06 10:12:46;;;;;;;25.45;8.18;;;;;;;;;;5043435;28;20065;-64
2022/11/06 10:15:12;;;;;;;20.55;7.97;;;;;;;;;;5068388;28;20042;-64
2022/11/06 10:17:50;;;;;;;21.58;8.45;;;;;;;;;;5044072;28;20041;-64
2022/11/06 10:20:23;;;;;;;14.90;6.95;;;;;;;;;;5042373;28;20049;-63
2022/11/06 10:22:55;;;;;;;16.17;7.18;;;;;;;;;;5075803;28;20053;-64
2022/11/06 10:25:24;;;;;;;17.13;6.75;;;;;;;;;;5044726;28;20273;-64
2022/11/06 10:27:58;;;;;;;24.48;8.23;;;;;;;;;;5046037;28;20096;-64
2022/11/06 10:30:24;;;;;;;15.77;6.15;;;;;;;;;;5034752;28;20102;-64
2022/11/06 10:32:59;;;;;;;13.60;6.20;;;;;;;;;;5035357;28;20083;-63
2022/11/06 10:35:25;;;;;;;17.35;6.13;;;;;;;;;;5042418;28;20045;-64
2022/11/06 10:37:58;;;;;;;17.58;5.25;;;;;;;;;;5044974;28;20068;-64
2022/11/06 10:40:26;;;;;;;14.82;5.72;;;;;;;;;;5075635;28;20041;-64
2022/11/06 10:43:01;;;;;;;14.70;5.70;;;;;;;;;;5047329;28;20037;-64
2022/11/06 10:45:28;;;;;;;14.90;5.47;;;;;;;;;;5042597;28;20131;-65
2022/11/06 10:47:56;;;;;;;14.00;5.45;;;;;;;;;;5045769;28;20123;-65
2022/11/06 10:50:24;;;;;;;15.10;5.80;;;;;;;;;;5041765;28;21261;-65
2022/11/06 10:52:53;;;;;;;14.60;5.60;;;;;;;;;;5073367;28;20045;-64
2022/11/06 10:55:31;;;;;;;14.98;5.97;;;;;;;;;;5043128;28;20053;-65
2022/11/06 10:58:00;;;;;;;16.02;5.50;;;;;;;;;;5049095;28;20045;-65
2022/11/06 11:00:27;;;;;;;12.65;6.38;;;;;;;;;;5062057;28;20052;-65
2022/11/06 11:02:55;;;;;;;15.85;6.18;;;;;;;;;;5049563;28;20245;-65
2022/11/06 11:05:22;;;;;;;13.65;6.40;;;;;;;;;;5047721;28;20055;-65
2022/11/06 11:07:50;;;;;;;28.40;8.13;;;;;;;;;;5047360;28;20060;-65
2022/11/06 11:10:23;;;;;;;10.65;6.45;;;;;;;;;;5043418;28;20045;-65
2022/11/06 11:12:50;;;;;;;15.88;6.50;;;;;;;;;;5044025;28;20053;-64
2022/11/06 11:15:18;;;;;;;18.77;6.97;;;;;;;;;;5044464;28;20057;-65
2022/11/06 11:18:04;;;;;;;13.48;6.22;;;;;;;;;;5041476;28;20954;-64
2022/11/06 11:20:32;;;;;;;20.05;7.53;;;;;;;;;;5040759;28;20110;-65
2022/11/06 11:23:06;;;;;;;16.83;6.78;;;;;;;;;;5043550;28;20055;-65
2022/11/06 11:25:32;;;;;;;18.15;6.60;;;;;;;;;;5042054;28;20045;-65
2022/11/06 11:27:59;;;;;;;17.23;6.30;;;;;;;;;;5046461;28;20194;-64
2022/11/06 11:30:28;;;;;;;15.70;6.82;;;;;;;;;;5042027;28;20050;-64
2022/11/06 11:32:55;;;;;;;19.85;6.40;;;;;;;;;;5038884;28;20052;-68
2022/11/06 11:35:25;;;;;;;19.48;6.68;;;;;;;;;;5070307;28;20047;-64
2022/11/06 11:37:52;;;;;;;17.35;6.32;;;;;;;;;;5045714;28;20484;-64
2022/11/06 11:40:21;;;;;;;11.13;6.53;;;;;;;;;;5079733;28;20037;-64
2022/11/06 11:42:47;;;;;;;15.63;5.78;;;;;;;;;;5074760;28;20461;-64
2022/11/06 11:45:17;;;;;;;16.38;5.80;;;;;;;;;;5046854;28;20123;-64
2022/11/06 11:47:45;;;;;;;15.88;6.60;;;;;;;;;;5044646;28;20381;-64
2022/11/06 11:50:24;;;;;;;15.48;6.05;;;;;;;;;;5048629;28;20060;-64
2022/11/06 11:52:52;;;;;;;14.98;5.88;;;;;;;;;;5049347;28;20040;-64
2022/11/06 11:55:21;;;;;;;20.77;6.07;;;;;;;;;;5046639;28;20056;-64
2022/11/06 11:57:50;;;;;;;16.05;5.55;;;;;;;;;;5045633;28;20107;-65
2022/11/06 12:00:18;;;;;;;16.83;5.78;;;;;;;;;;5045006;28;20548;-65
2022/11/06 12:02:52;;;;;;;19.33;5.18;;;;;;;;;;5045948;28;20049;-64
2022/11/06 12:05:22;;;;;;;18.90;5.25;;;;;;;;;;5044996;28;20557;-65
2022/11/06 12:07:56;;;;;;;12.30;5.10;;;;;;;;;;5046106;28;20049;-64
2022/11/06 12:10:22;;;;;;;12.27;4.90;;;;;;;;;;5042743;28;20407;-64
2022/11/06 12:12:50;;;;;;;17.35;5.63;;;;;;;;;;5043552;28;20048;-64
2022/11/06 12:15:24;;;;;;;13.85;5.70;;;;;;;;;;5044899;28;20434;-64
2022/11/06 12:17:54;;;;;;;12.35;5.20;;;;;;;;;;5040230;28;20049;-63
2022/11/06 12:20:23;;;;;;;14.75;4.93;;;;;;;;;;5042560;28;20472;-64
2022/11/06 12:22:51;;;;;;;15.30;4.57;;;;;;;;;;5075367;28;20068;-64
2022/11/06 12:25:17;;;;;;;12.75;4.57;;;;;;;;;;5041669;28;20041;-64
2022/11/06 12:27:46;;;;;;;13.07;5.10;;;;;;;;;;5042741;28;20037;-64
2022/11/06 12:30:14;;;;;;;12.10;4.10;;;;;;;;;;5042899;28;20048;-64
2022/11/06 12:32:48;;;;;;;11.38;3.40;;;;;;;;;;5037541;28;20056;-64
2022/11/06 12:35:18;;;;;;;9.63;3.47;;;;;;;;;;5043922;28;20448;-64
2022/11/06 12:37:52;;;;;;;9.55;2.88;;;;;;;;;;5044181;28;20147;-63
2022/11/06 12:40:20;;;;;;;9.43;3.35;;;;;;;;;;5043841;28;20128;-64
2022/11/06 12:42:53;;;;;;;9.00;3.00;;;;;;;;;;5048075;28;20045;-64
2022/11/06 12:45:19;;;;;;;10.93;3.47;;;;;;;;;;5045280;28;20044;-64
2022/11/06 12:47:47;;;;;;;9.38;2.75;;;;;;;;;;5045366;28;20048;-64
2022/11/06 12:50:16;;;;;;;6.07;2.28;;;;;;;;;;5045262;28;20069;-64
2022/11/06 12:52:50;;;;;;;9.55;2.50;;;;;;;;;;5077783;28;20144;-64
2022/11/06 12:55:20;;;;;;;11.50;2.47;;;;;;;;;;5046566;28;20041;-65
2022/11/06 12:57:52;;;;;;;8.77;2.45;;;;;;;;;;5043813;28;20049;-65
2022/11/06 13:00:20;;;;;;;9.93;2.63;;;;;;;;;;5043880;28;20274;-64
2022/11/06 13:03:04;;;;;;;11.07;3.22;;;;;;;;;;5039256;28;20456;-64
2022/11/06 13:05:39;;;;;;;11.00;2.80;;;;;;;;;;5041254;28;20076;-64
2022/11/06 13:08:25;;;;;;;8.43;2.40;;;;;;;;;;5041413;28;20045;-64
2022/11/06 13:10:59;;;;;;;11.63;2.88;;;;;;;;;;5042258;28;20170;-64
2022/11/06 13:13:25;;;;;;;8.80;3.05;;;;;;;;;;5039134;28;20033;-65
2022/11/06 13:15:55;;;;;;;9.38;2.70;;;;;;;;;;5071443;28;20049;-64
2022/11/06 13:18:25;;;;;;;8.75;3.00;;;;;;;;;;5041644;28;20033;-64
2022/11/06 13:20:55;;;;;;;13.57;3.00;;;;;;;;;;5042403;28;20049;-64
2022/11/06 13:23:29;;;;;;;17.65;4.05;;;;;;;;;;5042959;28;20049;-64
2022/11/06 13:25:59;;;;;;;7.85;3.00;;;;;;;;;;5041179;28;20045;-64
2022/11/06 13:28:33;;;;;;;13.02;3.40;;;;;;;;;;5075347;28;20047;-65
2022/11/06 13:31:02;;;;;;;14.68;3.67;;;;;;;;;;5076104;28;20071;-65
2022/11/06 13:33:29;;;;;;;13.80;4.13;;;;;;;;;;5042496;28;20049;-65
2022/11/06 13:35:56;;;;;;;7.45;2.83;;;;;;;;;;5042357;28;20056;-63
2022/11/06 13:38:25;;;;;;;18.48;4.00;;;;;;;;;;5044581;28;20049;-64
2022/11/06 13:40:53;;;;;;;10.10;3.90;;;;;;;;;;5043311;28;20045;-64
2022/11/06 13:43:21;;;;;;;17.17;4.53;;;;;;;;;;5042807;28;20127;-64
2022/11/06 13:45:56;;;;;;;17.00;4.28;;;;;;;;;;5039888;28;20052;-63
2022/11/06 13:48:22;;;;;;;16.75;5.30;;;;;;;;;;5040725;28;20056;-64
2022/11/06 13:50:59;;;;;;;14.90;5.18;;;;;;;;;;5073540;28;20049;-64
2022/11/06 13:53:38;;;;;;;8.57;4.40;;;;;;;;;;5042819;28;21637;-64
2022/11/06 13:56:12;;;;;;;15.57;4.63;;;;;;;;;;5040797;28;20103;-64
2022/11/06 13:58:39;;;;;;;14.73;4.70;;;;;;;;;;5042028;28;20049;-64
2022/11/06 14:01:05;;;;;;;13.18;3.50;;;;;;;;;;5038847;28;20044;-65
2022/11/06 14:03:53;;;;;;;13.48;4.07;;;;;;;;;;5042893;28;20052;-64
2022/11/06 14:06:26;;;;;;;11.70;4.03;;;;;;;;;;5040144;28;20095;-64
2022/11/06 14:08:54;;;;;;;9.82;3.88;;;;;;;;;;5041784;28;20259;-65
2022/11/06 14:11:28;;;;;;;14.57;4.18;;;;;;;;;;5046678;28;20127;-64
2022/11/06 14:13:56;;;;;;;13.85;3.78;;;;;;;;;;5047212;28;20147;-65
2022/11/06 14:16:24;;;;;;;12.95;3.30;;;;;;;;;;5044218;28;21970;-65
2022/11/06 14:18:58;;;;;;;13.18;4.43;;;;;;;;;;5043193;28;20076;-65
2022/11/06 14:21:25;;;;;;;12.90;4.25;;;;;;;;;;5076459;28;20384;-65
2022/11/06 14:23:53;;;;;;;13.85;3.55;;;;;;;;;;5044667;28;20392;-65
2022/11/06 14:26:38;;;;;;;10.43;3.55;;;;;;;;;;5045433;28;20225;-66
2022/11/06 14:29:23;;;;;;;12.00;3.10;;;;;;;;;;5045694;28;20453;-66
2022/11/06 14:32:00;;;;;;;10.75;3.35;;;;;;;;;;5046283;28;20135;-71
2022/11/06 14:34:27;;;;;;;16.98;3.33;;;;;;;;;;5044370;28;20578;-64
2022/11/06 14:36:53;;;;;;;11.73;3.00;;;;;;;;;;5046825;28;20431;-66
2022/11/06 14:39:40;;;;;;;13.13;3.28;;;;;;;;;;5047797;28;20064;-62
2022/11/06 14:42:06;;;;;;;19.75;3.65;;;;;;;;;;5045704;28;20052;-63
2022/11/06 14:44:38;;;;;;;9.07;2.60;;;;;;;;;;5075088;28;20044;-65